Spring River (Missouri), Carthage (07185765)

StateMissouriLatestHigh (1240 cfs)
RiverSpring RiverRatingObservedEstimated
Updated2020-02-25 22:45 (31 minutes ago)Flood - The river is flooding. Obstacles can be treacherous or deadly. The river should be avoided at this stage for casual trips and definitely for the inexperienced. Trips should be attempted only with protective gear and equipment.Flood(none)1723
Discharge1240 cfs (median: 316 cfs)High - The river is high and potentially dangerous, especially for the young and / or inexperienced. Normal stream obstacles are sometimes difficult to navigate. Extended distances can be attempted, but canoe travel may not be advisable.High(none)373
Height5.07 feetGood - Conditions are ideal for a canoe or kayak. Boats typically will drag on fewer than one-quarter of riffles, if at all, and portages are unnecessary or rare. Normal float lengths can be attempted without a problem.Good(none)326
TrendFalling (falling over 24 hours)Low - River is low but can still be floated. Some riffles are okay but most come with significant dragging and might need a portage. Float lengths should be reduced to accommodate low flow, dragging, and portages.Low(none)191
USGSExternal icon USGS Site (External icon Google Maps)Poor - River is too low to float comfortably. Most or all riffles will drag or must be portaged and some obstacles (such as slick shelf rock) cause undue problems. Avoid the river at this stage for casual paddling trips.Poor(none)44

Trending Data

Plot Image

Trips for Spring River (Missouri), Carthage (07185765)

DateStartEndDistanceConditionDischargeHeightFishingDetails

A total of 0 rows are displayed.

Condition Descriptions

Fishing Conditions

Fish Species

Notes

Classic Trip List

The classic River Trips application is still available for use. It is updated with the new system using a data retrofit. It is no longer maintained. The original River Trips application is no longer updated (as of 1 Dec 2016) but can be checked for errors or for the condition of the data before it was converted to the new system.

Gauge Data Table

ObservationHeightDischargeMaximum
Discharge
Minimum
Discharge
Mean
Discharge
P05P10P20P25P50
(Median)
P75P80P90P95
2020-02-25 22:45 5.07 1240 10800 (2018) 33 (2006) 737 43 90 115 130 316 545 618 1400 4740
2020-02-25 21:45 5.12 1280 10800 (2018) 33 (2006) 737 43 90 115 130 316 545 618 1400 4740
2020-02-25 20:45 5.13 1290 10800 (2018) 33 (2006) 737 43 90 115 130 316 545 618 1400 4740
2020-02-25 19:45 5.12 1280 10800 (2018) 33 (2006) 737 43 90 115 130 316 545 618 1400 4740
2020-02-25 18:45 5.19 1340 10800 (2018) 33 (2006) 737 43 90 115 130 316 545 618 1400 4740
2020-02-25 17:45 5.20 1340 10800 (2018) 33 (2006) 737 43 90 115 130 316 545 618 1400 4740
2020-02-25 16:45 5.21 1350 10800 (2018) 33 (2006) 737 43 90 115 130 316 545 618 1400 4740
2020-02-25 15:45 5.24 1380 10800 (2018) 33 (2006) 737 43 90 115 130 316 545 618 1400 4740
2020-02-25 14:45 5.27 1400 10800 (2018) 33 (2006) 737 43 90 115 130 316 545 618 1400 4740
2020-02-25 13:45 5.30 1420 10800 (2018) 33 (2006) 737 43 90 115 130 316 545 618 1400 4740
2020-02-25 12:45 5.34 1450 10800 (2018) 33 (2006) 737 43 90 115 130 316 545 618 1400 4740
2020-02-25 11:45 5.37 1470 10800 (2018) 33 (2006) 737 43 90 115 130 316 545 618 1400 4740
2020-02-25 10:45 5.40 1500 10800 (2018) 33 (2006) 737 43 90 115 130 316 545 618 1400 4740
2020-02-25 09:45 5.42 1510 10800 (2018) 33 (2006) 737 43 90 115 130 316 545 618 1400 4740
2020-02-25 08:45 5.48 1560 10800 (2018) 33 (2006) 737 43 90 115 130 316 545 618 1400 4740
2020-02-25 07:45 5.52 1590 10800 (2018) 33 (2006) 737 43 90 115 130 316 545 618 1400 4740
2020-02-25 06:45 5.53 1600 10800 (2018) 33 (2006) 737 43 90 115 130 316 545 618 1400 4740
2020-02-25 05:45 5.55 1610 10800 (2018) 33 (2006) 737 43 90 115 130 316 545 618 1400 4740
2020-02-25 04:45 5.61 1660 10800 (2018) 33 (2006) 737 43 90 115 130 316 545 618 1400 4740
2020-02-25 03:45 5.62 1670 10800 (2018) 33 (2006) 737 43 90 115 130 316 545 618 1400 4740
2020-02-25 02:45 5.65 1690 10800 (2018) 33 (2006) 737 43 90 115 130 316 545 618 1400 4740
2020-02-25 01:45 5.71 1740 10800 (2018) 33 (2006) 737 43 90 115 130 316 545 618 1400 4740
2020-02-25 00:45 5.70 1740 10800 (2018) 33 (2006) 737 43 90 115 130 316 545 618 1400 4740
2020-02-24 23:45 5.72 1750 6520 (2018) 34 (2006) 576 45 93 112 133 295 558 604 1040 3430
2020-02-24 22:45 5.81 1830 6520 (2018) 34 (2006) 576 45 93 112 133 295 558 604 1040 3430
2020-02-24 21:45 5.86 1870 6520 (2018) 34 (2006) 576 45 93 112 133 295 558 604 1040 3430
2020-02-24 20:45 5.90 1900 6520 (2018) 34 (2006) 576 45 93 112 133 295 558 604 1040 3430
2020-02-24 19:45 6.04 2010 6520 (2018) 34 (2006) 576 45 93 112 133 295 558 604 1040 3430
2020-02-24 18:45 6.10 2060 6520 (2018) 34 (2006) 576 45 93 112 133 295 558 604 1040 3430
2020-02-24 17:45 6.24 2170 6520 (2018) 34 (2006) 576 45 93 112 133 295 558 604 1040 3430
2020-02-24 16:45 6.25 2180 6520 (2018) 34 (2006) 576 45 93 112 133 295 558 604 1040 3430
2020-02-24 15:45 6.24 2170 6520 (2018) 34 (2006) 576 45 93 112 133 295 558 604 1040 3430
2020-02-24 14:45 6.29 2210 6520 (2018) 34 (2006) 576 45 93 112 133 295 558 604 1040 3430
2020-02-24 13:45 6.25 2180 6520 (2018) 34 (2006) 576 45 93 112 133 295 558 604 1040 3430
2020-02-24 12:45 6.11 2070 6520 (2018) 34 (2006) 576 45 93 112 133 295 558 604 1040 3430
2020-02-24 11:45 5.90 1900 6520 (2018) 34 (2006) 576 45 93 112 133 295 558 604 1040 3430
2020-02-24 10:45 5.64 1690 6520 (2018) 34 (2006) 576 45 93 112 133 295 558 604 1040 3430
2020-02-24 09:45 5.32 1430 6520 (2018) 34 (2006) 576 45 93 112 133 295 558 604 1040 3430
2020-02-24 07:45 4.83 1070 6520 (2018) 34 (2006) 576 45 93 112 133 295 558 604 1040 3430
2020-02-24 06:45 4.68 965 6520 (2018) 34 (2006) 576 45 93 112 133 295 558 604 1040 3430
2020-02-24 05:45 4.64 938 6520 (2018) 34 (2006) 576 45 93 112 133 295 558 604 1040 3430
2020-02-24 04:45 4.59 904 6520 (2018) 34 (2006) 576 45 93 112 133 295 558 604 1040 3430
2020-02-24 03:45 4.57 891 6520 (2018) 34 (2006) 576 45 93 112 133 295 558 604 1040 3430
2020-02-24 02:45 4.53 863 6520 (2018) 34 (2006) 576 45 93 112 133 295 558 604 1040 3430
2020-02-24 01:45 4.44 803 6520 (2018) 34 (2006) 576 45 93 112 133 295 558 604 1040 3430
2020-02-24 00:45 4.40 774 6520 (2018) 34 (2006) 576 45 93 112 133 295 558 604 1040 3430
2020-02-23 23:45 4.33 729 4660 (1975) 34 (2006) 507 46 94 113 137 292 569 675 1000 2400
2020-02-23 22:45 4.30 707 4660 (1975) 34 (2006) 507 46 94 113 137 292 569 675 1000 2400
2020-02-23 21:45 4.24 670 4660 (1975) 34 (2006) 507 46 94 113 137 292 569 675 1000 2400
2020-02-23 20:45 4.23 662 4660 (1975) 34 (2006) 507 46 94 113 137 292 569 675 1000 2400
2020-02-23 19:45 4.22 655 4660 (1975) 34 (2006) 507 46 94 113 137 292 569 675 1000 2400
2020-02-23 18:45 4.20 640 4660 (1975) 34 (2006) 507 46 94 113 137 292 569 675 1000 2400
2020-02-23 17:45 4.19 633 4660 (1975) 34 (2006) 507 46 94 113 137 292 569 675 1000 2400
2020-02-23 16:45 4.18 626 4660 (1975) 34 (2006) 507 46 94 113 137 292 569 675 1000 2400
2020-02-23 15:45 4.18 626 4660 (1975) 34 (2006) 507 46 94 113 137 292 569 675 1000 2400
2020-02-23 14:45 4.20 640 4660 (1975) 34 (2006) 507 46 94 113 137 292 569 675 1000 2400
2020-02-23 13:45 4.19 633 4660 (1975) 34 (2006) 507 46 94 113 137 292 569 675 1000 2400
2020-02-23 12:45 4.20 640 4660 (1975) 34 (2006) 507 46 94 113 137 292 569 675 1000 2400
2020-02-23 11:45 4.18 626 4660 (1975) 34 (2006) 507 46 94 113 137 292 569 675 1000 2400
2020-02-23 10:45 4.19 633 4660 (1975) 34 (2006) 507 46 94 113 137 292 569 675 1000 2400
2020-02-23 09:45 4.20 640 4660 (1975) 34 (2006) 507 46 94 113 137 292 569 675 1000 2400
2020-02-23 08:45 4.20 640 4660 (1975) 34 (2006) 507 46 94 113 137 292 569 675 1000 2400
2020-02-23 07:45 4.20 640 4660 (1975) 34 (2006) 507 46 94 113 137 292 569 675 1000 2400
2020-02-23 06:45 4.19 633 4660 (1975) 34 (2006) 507 46 94 113 137 292 569 675 1000 2400
2020-02-23 05:45 4.20 640 4660 (1975) 34 (2006) 507 46 94 113 137 292 569 675 1000 2400
2020-02-23 04:45 4.20 640 4660 (1975) 34 (2006) 507 46 94 113 137 292 569 675 1000 2400
2020-02-23 03:45 4.20 640 4660 (1975) 34 (2006) 507 46 94 113 137 292 569 675 1000 2400
2020-02-23 02:45 4.21 648 4660 (1975) 34 (2006) 507 46 94 113 137 292 569 675 1000 2400
2020-02-23 01:45 4.20 640 4660 (1975) 34 (2006) 507 46 94 113 137 292 569 675 1000 2400
2020-02-23 00:45 4.21 648 4660 (1975) 34 (2006) 507 46 94 113 137 292 569 675 1000 2400
2020-02-22 23:45 4.21 648 1730 (1975) 35 (2006) 428 47 93 112 139 307 570 675 1000 1460
2020-02-22 22:45 4.21 648 1730 (1975) 35 (2006) 428 47 93 112 139 307 570 675 1000 1460
2020-02-22 21:45 4.21 648 1730 (1975) 35 (2006) 428 47 93 112 139 307 570 675 1000 1460
2020-02-22 20:45 4.22 655 1730 (1975) 35 (2006) 428 47 93 112 139 307 570 675 1000 1460
2020-02-22 19:45 4.21 648 1730 (1975) 35 (2006) 428 47 93 112 139 307 570 675 1000 1460
2020-02-22 18:45 4.21 648 1730 (1975) 35 (2006) 428 47 93 112 139 307 570 675 1000 1460
2020-02-22 17:45 4.21 648 1730 (1975) 35 (2006) 428 47 93 112 139 307 570 675 1000 1460
2020-02-22 16:45 4.22 655 1730 (1975) 35 (2006) 428 47 93 112 139 307 570 675 1000 1460
2020-02-22 15:45 4.22 655 1730 (1975) 35 (2006) 428 47 93 112 139 307 570 675 1000 1460
2020-02-22 14:45 4.22 655 1730 (1975) 35 (2006) 428 47 93 112 139 307 570 675 1000 1460
2020-02-22 13:45 4.22 655 1730 (1975) 35 (2006) 428 47 93 112 139 307 570 675 1000 1460
2020-02-22 12:45 4.22 655 1730 (1975) 35 (2006) 428 47 93 112 139 307 570 675 1000 1460
2020-02-22 11:45 4.23 662 1730 (1975) 35 (2006) 428 47 93 112 139 307 570 675 1000 1460
2020-02-22 10:45 4.23 662 1730 (1975) 35 (2006) 428 47 93 112 139 307 570 675 1000 1460
2020-02-22 09:45 4.22 655 1730 (1975) 35 (2006) 428 47 93 112 139 307 570 675 1000 1460
2020-02-22 08:45 4.22 655 1730 (1975) 35 (2006) 428 47 93 112 139 307 570 675 1000 1460
2020-02-22 07:45 4.22 655 1730 (1975) 35 (2006) 428 47 93 112 139 307 570 675 1000 1460
2020-02-22 06:45 4.23 662 1730 (1975) 35 (2006) 428 47 93 112 139 307 570 675 1000 1460
2020-02-22 05:45 4.23 662 1730 (1975) 35 (2006) 428 47 93 112 139 307 570 675 1000 1460
2020-02-22 04:45 4.23 662 1730 (1975) 35 (2006) 428 47 93 112 139 307 570 675 1000 1460
2020-02-22 03:45 4.22 655 1730 (1975) 35 (2006) 428 47 93 112 139 307 570 675 1000 1460
2020-02-22 02:45 4.22 655 1730 (1975) 35 (2006) 428 47 93 112 139 307 570 675 1000 1460
2020-02-22 01:45 4.22 655 1730 (1975) 35 (2006) 428 47 93 112 139 307 570 675 1000 1460
2020-02-22 00:45 4.23 662 1730 (1975) 35 (2006) 428 47 93 112 139 307 570 675 1000 1460
2020-02-21 23:45 4.23 662 1290 (2008) 34 (2006) 382 48 94 113 126 310 465 521 984 1280
2020-02-21 22:45 4.24 670 1290 (2008) 34 (2006) 382 48 94 113 126 310 465 521 984 1280
2020-02-21 21:45 4.24 670 1290 (2008) 34 (2006) 382 48 94 113 126 310 465 521 984 1280
2020-02-21 20:45 4.24 670 1290 (2008) 34 (2006) 382 48 94 113 126 310 465 521 984 1280
2020-02-21 19:45 4.24 670 1290 (2008) 34 (2006) 382 48 94 113 126 310 465 521 984 1280
2020-02-21 18:45 4.24 670 1290 (2008) 34 (2006) 382 48 94 113 126 310 465 521 984 1280
2020-02-21 17:45 4.25 677 1290 (2008) 34 (2006) 382 48 94 113 126 310 465 521 984 1280
2020-02-21 16:45 4.26 685 1290 (2008) 34 (2006) 382 48 94 113 126 310 465 521 984 1280
2020-02-21 15:45 4.25 677 1290 (2008) 34 (2006) 382 48 94 113 126 310 465 521 984 1280
2020-02-21 14:45 4.25 677 1290 (2008) 34 (2006) 382 48 94 113 126 310 465 521 984 1280
2020-02-21 13:45 4.25 677 1290 (2008) 34 (2006) 382 48 94 113 126 310 465 521 984 1280
2020-02-21 12:45 4.26 685 1290 (2008) 34 (2006) 382 48 94 113 126 310 465 521 984 1280
2020-02-21 11:45 4.26 685 1290 (2008) 34 (2006) 382 48 94 113 126 310 465 521 984 1280
2020-02-21 10:45 4.28 693 1290 (2008) 34 (2006) 382 48 94 113 126 310 465 521 984 1280
2020-02-21 09:45 4.26 685 1290 (2008) 34 (2006) 382 48 94 113 126 310 465 521 984 1280
2020-02-21 08:45 4.25 677 1290 (2008) 34 (2006) 382 48 94 113 126 310 465 521 984 1280
2020-02-21 07:45 4.26 685 1290 (2008) 34 (2006) 382 48 94 113 126 310 465 521 984 1280
2020-02-21 06:45 4.26 685 1290 (2008) 34 (2006) 382 48 94 113 126 310 465 521 984 1280
2020-02-21 05:45 4.28 693 1290 (2008) 34 (2006) 382 48 94 113 126 310 465 521 984 1280
2020-02-21 04:45 4.28 693 1290 (2008) 34 (2006) 382 48 94 113 126 310 465 521 984 1280
2020-02-21 03:45 4.28 693 1290 (2008) 34 (2006) 382 48 94 113 126 310 465 521 984 1280
2020-02-21 02:45 4.30 707 1290 (2008) 34 (2006) 382 48 94 113 126 310 465 521 984 1280
2020-02-21 01:45 4.30 707 1290 (2008) 34 (2006) 382 48 94 113 126 310 465 521 984 1280
2020-02-21 00:45 4.29 700 1290 (2008) 34 (2006) 382 48 94 113 126 310 465 521 984 1280
2020-02-20 23:45 4.29 700 1390 (2008) 34 (2006) 343 50 94 104 131 299 477 485 606 1120
2020-02-20 22:45 4.30 707 1390 (2008) 34 (2006) 343 50 94 104 131 299 477 485 606 1120
2020-02-20 21:45 4.30 707 1390 (2008) 34 (2006) 343 50 94 104 131 299 477 485 606 1120
2020-02-20 20:45 4.30 707 1390 (2008) 34 (2006) 343 50 94 104 131 299 477 485 606 1120
2020-02-20 19:45 4.30 707 1390 (2008) 34 (2006) 343 50 94 104 131 299 477 485 606 1120
2020-02-20 18:45 4.31 715 1390 (2008) 34 (2006) 343 50 94 104 131 299 477 485 606 1120
2020-02-20 17:45 4.31 715 1390 (2008) 34 (2006) 343 50 94 104 131 299 477 485 606 1120
2020-02-20 16:45 4.32 722 1390 (2008) 34 (2006) 343 50 94 104 131 299 477 485 606 1120
2020-02-20 15:45 4.32 722 1390 (2008) 34 (2006) 343 50 94 104 131 299 477 485 606 1120
2020-02-20 14:45 4.32 722 1390 (2008) 34 (2006) 343 50 94 104 131 299 477 485 606 1120
2020-02-20 13:45 4.33 729 1390 (2008) 34 (2006) 343 50 94 104 131 299 477 485 606 1120
2020-02-20 12:45 4.33 729 1390 (2008) 34 (2006) 343 50 94 104 131 299 477 485 606 1120
2020-02-20 11:45 4.33 729 1390 (2008) 34 (2006) 343 50 94 104 131 299 477 485 606 1120
2020-02-20 10:45 4.34 736 1390 (2008) 34 (2006) 343 50 94 104 131 299 477 485 606 1120
2020-02-20 09:45 4.34 736 1390 (2008) 34 (2006) 343 50 94 104 131 299 477 485 606 1120
2020-02-20 08:45 4.34 736 1390 (2008) 34 (2006) 343 50 94 104 131 299 477 485 606 1120
2020-02-20 07:45 4.34 736 1390 (2008) 34 (2006) 343 50 94 104 131 299 477 485 606 1120
2020-02-20 06:45 4.33 729 1390 (2008) 34 (2006) 343 50 94 104 131 299 477 485 606 1120
2020-02-20 05:45 4.35 744 1390 (2008) 34 (2006) 343 50 94 104 131 299 477 485 606 1120
2020-02-20 04:45 4.35 744 1390 (2008) 34 (2006) 343 50 94 104 131 299 477 485 606 1120
2020-02-20 03:45 4.34 736 1390 (2008) 34 (2006) 343 50 94 104 131 299 477 485 606 1120
2020-02-20 02:45 4.36 751 1390 (2008) 34 (2006) 343 50 94 104 131 299 477 485 606 1120
2020-02-20 01:45 4.34 736 1390 (2008) 34 (2006) 343 50 94 104 131 299 477 485 606 1120
2020-02-20 00:45 4.36 751 1390 (2008) 34 (2006) 343 50 94 104 131 299 477 485 606 1120
2020-02-19 23:45 4.36 751 1820 (2008) 34 (2006) 366 49 96 104 111 301 463 504 637 1550
2020-02-19 22:45 4.35 744 1820 (2008) 34 (2006) 366 49 96 104 111 301 463 504 637 1550
2020-02-19 21:45 4.37 759 1820 (2008) 34 (2006) 366 49 96 104 111 301 463 504 637 1550
2020-02-19 20:45 4.38 766 1820 (2008) 34 (2006) 366 49 96 104 111 301 463 504 637 1550
2020-02-19 19:45 4.37 759 1820 (2008) 34 (2006) 366 49 96 104 111 301 463 504 637 1550
2020-02-19 18:45 4.37 759 1820 (2008) 34 (2006) 366 49 96 104 111 301 463 504 637 1550
2020-02-19 17:45 4.37 759 1820 (2008) 34 (2006) 366 49 96 104 111 301 463 504 637 1550
2020-02-19 16:45 4.38 766 1820 (2008) 34 (2006) 366 49 96 104 111 301 463 504 637 1550
2020-02-19 15:45 4.38 766 1820 (2008) 34 (2006) 366 49 96 104 111 301 463 504 637 1550
2020-02-19 14:45 4.40 774 1820 (2008) 34 (2006) 366 49 96 104 111 301 463 504 637 1550
2020-02-19 13:45 4.41 781 1820 (2008) 34 (2006) 366 49 96 104 111 301 463 504 637 1550
2020-02-19 12:45 4.40 774 1820 (2008) 34 (2006) 366 49 96 104 111 301 463 504 637 1550
2020-02-19 11:45 4.41 781 1820 (2008) 34 (2006) 366 49 96 104 111 301 463 504 637 1550
2020-02-19 10:45 4.40 774 1820 (2008) 34 (2006) 366 49 96 104 111 301 463 504 637 1550
2020-02-19 09:45 4.41 781 1820 (2008) 34 (2006) 366 49 96 104 111 301 463 504 637 1550
2020-02-19 08:45 4.40 774 1820 (2008) 34 (2006) 366 49 96 104 111 301 463 504 637 1550
2020-02-19 07:45 4.42 789 1820 (2008) 34 (2006) 366 49 96 104 111 301 463 504 637 1550
2020-02-19 06:45 4.41 781 1820 (2008) 34 (2006) 366 49 96 104 111 301 463 504 637 1550
2020-02-19 05:45 4.42 789 1820 (2008) 34 (2006) 366 49 96 104 111 301 463 504 637 1550
2020-02-19 04:45 4.43 796 1820 (2008) 34 (2006) 366 49 96 104 111 301 463 504 637 1550
2020-02-19 03:45 4.43 796 1820 (2008) 34 (2006) 366 49 96 104 111 301 463 504 637 1550
2020-02-19 02:45 4.43 796 1820 (2008) 34 (2006) 366 49 96 104 111 301 463 504 637 1550
2020-02-19 01:45 4.44 803 1820 (2008) 34 (2006) 366 49 96 104 111 301 463 504 637 1550
2020-02-19 00:45 4.44 803 1820 (2008) 34 (2006) 366 49 96 104 111 301 463 504 637 1550
2020-02-18 23:45 4.45 811 4560 (2008) 34 (2006) 439 50 84 105 116 304 455 500 653 2180
2020-02-18 22:45 4.43 796 4560 (2008) 34 (2006) 439 50 84 105 116 304 455 500 653 2180
2020-02-18 21:45 4.46 818 4560 (2008) 34 (2006) 439 50 84 105 116 304 455 500 653 2180
2020-02-18 20:45 4.46 818 4560 (2008) 34 (2006) 439 50 84 105 116 304 455 500 653 2180
2020-02-18 19:45 4.45 811 4560 (2008) 34 (2006) 439 50 84 105 116 304 455 500 653 2180
2020-02-18 18:45 4.46 818 4560 (2008) 34 (2006) 439 50 84 105 116 304 455 500 653 2180
2020-02-18 17:45 4.47 825 4560 (2008) 34 (2006) 439 50 84 105 116 304 455 500 653 2180
2020-02-18 16:45 4.47 825 4560 (2008) 34 (2006) 439 50 84 105 116 304 455 500 653 2180
2020-02-18 15:45 4.48 833 4560 (2008) 34 (2006) 439 50 84 105 116 304 455 500 653 2180
2020-02-18 14:45 4.48 833 4560 (2008) 34 (2006) 439 50 84 105 116 304 455 500 653 2180
2020-02-18 13:45 4.48 833 4560 (2008) 34 (2006) 439 50 84 105 116 304 455 500 653 2180
2020-02-18 12:45 4.50 840 4560 (2008) 34 (2006) 439 50 84 105 116 304 455 500 653 2180
2020-02-18 11:45 4.51 848 4560 (2008) 34 (2006) 439 50 84 105 116 304 455 500 653 2180
2020-02-18 10:45 4.50 840 4560 (2008) 34 (2006) 439 50 84 105 116 304 455 500 653 2180
2020-02-18 09:45 4.50 840 4560 (2008) 34 (2006) 439 50 84 105 116 304 455 500 653 2180
2020-02-18 08:45 4.51 848 4560 (2008) 34 (2006) 439 50 84 105 116 304 455 500 653 2180
2020-02-18 07:45 4.50 840 4560 (2008) 34 (2006) 439 50 84 105 116 304 455 500 653 2180
2020-02-18 06:45 4.50 840 4560 (2008) 34 (2006) 439 50 84 105 116 304 455 500 653 2180
2020-02-18 05:45 4.51 848 4560 (2008) 34 (2006) 439 50 84 105 116 304 455 500 653 2180
2020-02-18 04:45 4.52 855 4560 (2008) 34 (2006) 439 50 84 105 116 304 455 500 653 2180
2020-02-18 03:45 4.52 855 4560 (2008) 34 (2006) 439 50 84 105 116 304 455 500 653 2180
2020-02-18 02:45 4.53 863 4560 (2008) 34 (2006) 439 50 84 105 116 304 455 500 653 2180
2020-02-18 01:45 4.54 870 4560 (2008) 34 (2006) 439 50 84 105 116 304 455 500 653 2180
2020-02-18 00:45 4.54 870 4560 (2008) 34 (2006) 439 50 84 105 116 304 455 500 653 2180

A total of 190 rows are displayed for years 1967 through 2019.